Time;durP1;ratioP1;P1;durP2;ratioP2;P2;SDS_P1;SDS_P2;PMS_P1;PMS_P2;Temp;Humidity;BMP_temperature;BMP_pressure;BME280_temperature;BME280_humidity;BME280_pressure;Samples;Min_cycle;Max_cycle;Signal;HPM_P1;HPM_P2
2021/03/01 00:00:42;;;;;;;2.00;1.90;;;;;;;;;;5052232;28;20429;-74
2021/03/01 00:03:08;;;;;;;1.67;1.47;;;;;;;;;;5051850;28;20423;-75
2021/03/01 00:05:35;;;;;;;16.63;2.97;;;;;;;;;;5052084;28;20501;-74
2021/03/01 00:08:00;;;;;;;1.13;0.60;;;;;;;;;;5052072;28;20909;-73
2021/03/01 00:10:26;;;;;;;1.00;0.63;;;;;;;;;;5051875;28;20473;-74
2021/03/01 00:12:52;;;;;;;2.27;2.07;;;;;;;;;;5051625;28;20801;-74
2021/03/01 00:15:20;;;;;;;0.70;0.40;;;;;;;;;;5051056;28;20476;-74
2021/03/01 00:17:46;;;;;;;4.30;0.80;;;;;;;;;;5052321;28;20446;-74
2021/03/01 00:20:14;;;;;;;1.37;0.83;;;;;;;;;;5051926;28;20441;-74
2021/03/01 00:22:44;;;;;;;1.67;1.03;;;;;;;;;;5079643;22;20588;-71
2021/03/01 00:25:10;;;;;;;1.00;0.60;;;;;;;;;;5070621;28;20436;-70
2021/03/01 00:27:36;;;;;;;0.70;0.50;;;;;;;;;;5068903;28;20398;-70
2021/03/01 00:30:03;;;;;;;1.23;0.87;;;;;;;;;;5074429;28;20478;-71
2021/03/01 00:32:29;;;;;;;1.10;0.93;;;;;;;;;;5074461;28;20468;-71
2021/03/01 00:34:55;;;;;;;0.70;0.50;;;;;;;;;;5071332;28;20408;-71
2021/03/01 00:37:21;;;;;;;0.70;0.50;;;;;;;;;;5072646;28;20394;-70
2021/03/01 00:39:47;;;;;;;1.17;1.07;;;;;;;;;;5071694;28;20413;-71
2021/03/01 00:42:13;;;;;;;0.90;0.80;;;;;;;;;;5071250;28;20462;-71
2021/03/01 00:44:39;;;;;;;1.40;1.07;;;;;;;;;;5072966;28;20407;-71
2021/03/01 00:47:04;;;;;;;1.27;1.07;;;;;;;;;;5073788;28;20453;-71
2021/03/01 00:49:30;;;;;;;0.80;0.50;;;;;;;;;;5064702;28;20716;-71
2021/03/01 00:51:56;;;;;;;1.33;0.97;;;;;;;;;;5055766;28;20433;-71
2021/03/01 00:54:22;;;;;;;0.70;0.60;;;;;;;;;;5071459;28;20839;-71
2021/03/01 00:56:48;;;;;;;0.90;0.70;;;;;;;;;;5072364;28;20899;-71
2021/03/01 00:59:14;;;;;;;0.80;0.60;;;;;;;;;;5072047;28;20450;-71
2021/03/01 01:01:40;;;;;;;3.87;0.90;;;;;;;;;;5070914;28;20995;-71
2021/03/01 01:04:06;;;;;;;0.70;0.50;;;;;;;;;;5051999;28;20974;-71
2021/03/01 01:06:32;;;;;;;1.10;0.63;;;;;;;;;;5052336;28;20912;-71
2021/03/01 01:08:58;;;;;;;5.03;0.83;;;;;;;;;;5051420;28;20905;-71
2021/03/01 01:11:24;;;;;;;2.10;0.67;;;;;;;;;;5052395;28;20434;-71
2021/03/01 01:13:50;;;;;;;0.90;0.80;;;;;;;;;;5053638;28;20415;-71
2021/03/01 01:16:16;;;;;;;2.67;1.20;;;;;;;;;;5074490;28;20421;-71
2021/03/01 01:18:42;;;;;;;1.20;1.10;;;;;;;;;;5072377;28;20446;-71
2021/03/01 01:21:08;;;;;;;2.80;1.40;;;;;;;;;;5071986;28;20977;-71
2021/03/01 01:23:34;;;;;;;1.00;0.80;;;;;;;;;;5072647;28;20823;-71
2021/03/01 01:26:00;;;;;;;0.83;0.83;;;;;;;;;;5074404;28;20413;-71
2021/03/01 01:28:26;;;;;;;0.90;0.60;;;;;;;;;;5089660;28;21121;-71
2021/03/01 01:30:52;;;;;;;0.80;0.70;;;;;;;;;;5081433;28;20467;-71
2021/03/01 01:33:18;;;;;;;3.83;3.00;;;;;;;;;;5070648;28;20499;-71
2021/03/01 01:35:44;;;;;;;1.10;0.70;;;;;;;;;;5073902;28;20420;-71
2021/03/01 01:38:10;;;;;;;1.40;0.80;;;;;;;;;;5081935;28;20489;-70
2021/03/01 01:40:36;;;;;;;8.73;1.63;;;;;;;;;;5080652;28;20406;-71
2021/03/01 01:43:02;;;;;;;0.80;0.70;;;;;;;;;;5080809;28;20472;-70
2021/03/01 01:45:28;;;;;;;3.53;1.63;;;;;;;;;;5069918;28;20448;-71
2021/03/01 01:47:54;;;;;;;4.20;1.53;;;;;;;;;;5071217;28;20457;-71
2021/03/01 01:50:21;;;;;;;12.20;2.07;;;;;;;;;;5071096;28;20446;-70
2021/03/01 01:52:48;;;;;;;1.03;0.93;;;;;;;;;;5058496;28;20516;-71
2021/03/01 01:55:15;;;;;;;1.30;1.13;;;;;;;;;;5050624;28;20425;-71
2021/03/01 01:57:42;;;;;;;0.87;0.50;;;;;;;;;;5051920;28;20459;-70
2021/03/01 02:00:12;;;;;;;0.80;0.67;;;;;;;;;;5050612;28;20437;-71
2021/03/01 02:02:38;;;;;;;6.30;1.00;;;;;;;;;;5062639;28;20422;-70
2021/03/01 02:05:05;;;;;;;2.10;1.50;;;;;;;;;;5073971;28;20489;-70
2021/03/01 02:07:35;;;;;;;2.40;2.17;;;;;;;;;;5075249;28;21027;-71
2021/03/01 02:10:13;;;;;;;0.80;0.60;;;;;;;;;;5072838;28;20994;-71
2021/03/01 02:12:58;;;;;;;2.23;2.03;;;;;;;;;;5061597;28;20448;-71
2021/03/01 02:15:28;;;;;;;5.53;2.70;;;;;;;;;;5036707;28;20413;-71
2021/03/01 02:17:54;;;;;;;8.53;1.23;;;;;;;;;;5061232;28;20456;-72
2021/03/01 02:20:20;;;;;;;0.70;0.50;;;;;;;;;;5062406;28;20478;-71
2021/03/01 02:22:47;;;;;;;0.87;0.70;;;;;;;;;;5067480;28;20490;-71
2021/03/01 02:25:15;;;;;;;0.70;0.50;;;;;;;;;;5077413;28;20425;-70
2021/03/01 02:27:45;;;;;;;1.17;1.07;;;;;;;;;;5082597;28;20447;-70
2021/03/01 02:30:16;;;;;;;1.07;0.80;;;;;;;;;;5087968;28;20419;-70
2021/03/01 02:32:43;;;;;;;1.03;0.93;;;;;;;;;;5086077;28;20422;-71
2021/03/01 02:35:11;;;;;;;0.80;0.70;;;;;;;;;;5088757;28;20893;-71
2021/03/01 02:37:38;;;;;;;2.70;0.53;;;;;;;;;;5048391;28;20451;-70
2021/03/01 02:40:05;;;;;;;1.53;0.90;;;;;;;;;;5052756;28;20413;-70
2021/03/01 02:42:31;;;;;;;0.70;0.50;;;;;;;;;;5073540;28;20468;-70
2021/03/01 02:44:57;;;;;;;1.67;1.00;;;;;;;;;;5074036;28;20433;-71
2021/03/01 02:47:24;;;;;;;0.70;0.50;;;;;;;;;;5057105;28;20456;-71
2021/03/01 02:49:52;;;;;;;1.30;0.87;;;;;;;;;;5056128;28;20415;-71
2021/03/01 02:52:18;;;;;;;0.90;0.60;;;;;;;;;;5070631;28;20440;-71
2021/03/01 02:54:44;;;;;;;0.70;0.40;;;;;;;;;;5075592;28;20776;-70
2021/03/01 02:57:13;;;;;;;2.87;1.57;;;;;;;;;;5075520;28;20830;-71
2021/03/01 02:59:39;;;;;;;1.00;0.80;;;;;;;;;;5056632;28;20446;-71
2021/03/01 03:02:05;;;;;;;0.80;0.53;;;;;;;;;;5065136;28;20492;-71
2021/03/01 03:04:33;;;;;;;2.40;1.80;;;;;;;;;;5055210;28;20774;-73
2021/03/01 03:06:59;;;;;;;0.90;0.60;;;;;;;;;;5055593;28;20403;-71
2021/03/01 03:09:25;;;;;;;2.60;2.40;;;;;;;;;;5063507;28;20406;-71
2021/03/01 03:11:53;;;;;;;1.47;1.37;;;;;;;;;;5062806;28;20453;-71
2021/03/01 03:14:21;;;;;;;2.20;1.67;;;;;;;;;;5051201;28;20406;-72
2021/03/01 03:16:51;;;;;;;1.07;0.70;;;;;;;;;;5084681;28;20845;-72
2021/03/01 03:19:17;;;;;;;0.70;0.40;;;;;;;;;;5040283;28;20495;-71
2021/03/01 03:21:43;;;;;;;1.40;0.70;;;;;;;;;;5067193;28;20443;-71
2021/03/01 03:24:09;;;;;;;1.10;0.80;;;;;;;;;;5057033;28;20413;-71
2021/03/01 03:26:35;;;;;;;3.80;0.73;;;;;;;;;;5055532;28;20572;-71
2021/03/01 03:29:01;;;;;;;0.87;0.80;;;;;;;;;;5055533;28;20441;-71
2021/03/01 03:31:27;;;;;;;6.20;2.10;;;;;;;;;;5080214;28;20798;-71
2021/03/01 03:33:53;;;;;;;0.70;0.50;;;;;;;;;;5067855;28;20472;-71
2021/03/01 03:36:22;;;;;;;0.80;0.70;;;;;;;;;;5076849;28;20466;-71
2021/03/01 03:38:51;;;;;;;0.73;0.60;;;;;;;;;;5057424;28;20527;-71
2021/03/01 03:41:18;;;;;;;1.07;0.97;;;;;;;;;;5061368;28;20429;-70
2021/03/01 03:43:47;;;;;;;4.83;0.97;;;;;;;;;;5053471;28;20418;-71
2021/03/01 03:46:13;;;;;;;0.70;0.50;;;;;;;;;;5055428;28;20504;-71
2021/03/01 03:48:40;;;;;;;0.80;0.50;;;;;;;;;;5056981;28;20420;-71
2021/03/01 03:51:08;;;;;;;3.93;1.47;;;;;;;;;;5063297;28;20498;-71
2021/03/01 03:53:37;;;;;;;1.07;0.97;;;;;;;;;;5054007;28;20414;-72
2021/03/01 03:56:03;;;;;;;0.70;0.50;;;;;;;;;;5052952;28;20402;-72
2021/03/01 03:58:37;;;;;;;0.70;0.50;;;;;;;;;;5056097;28;20537;-71
2021/03/01 04:01:03;;;;;;;0.90;0.60;;;;;;;;;;5060637;28;20425;-70
2021/03/01 04:03:31;;;;;;;1.47;0.80;;;;;;;;;;5074214;28;20404;-70
2021/03/01 04:05:58;;;;;;;0.73;0.67;;;;;;;;;;5074744;28;20489;-70
2021/03/01 04:08:27;;;;;;;0.73;0.60;;;;;;;;;;5074713;28;20413;-70
2021/03/01 04:10:53;;;;;;;0.80;0.60;;;;;;;;;;5070293;28;20423;-71
2021/03/01 04:13:20;;;;;;;2.17;1.10;;;;;;;;;;5052716;28;20421;-71
2021/03/01 04:15:47;;;;;;;0.70;0.50;;;;;;;;;;5050003;28;20509;-71
2021/03/01 04:18:19;;;;;;;1.30;1.20;;;;;;;;;;5053000;28;20462;-71
2021/03/01 04:20:46;;;;;;;2.20;0.70;;;;;;;;;;5058573;28;20438;-71
2021/03/01 04:23:12;;;;;;;0.80;0.77;;;;;;;;;;5108031;28;20436;-72
2021/03/01 04:25:38;;;;;;;1.00;0.77;;;;;;;;;;5106176;28;20955;-71
2021/03/01 04:28:04;;;;;;;0.80;0.50;;;;;;;;;;5091929;28;20479;-71
2021/03/01 04:30:31;;;;;;;49.10;3.30;;;;;;;;;;5085633;28;20418;-70
2021/03/01 04:32:58;;;;;;;0.70;0.57;;;;;;;;;;5075463;28;20527;-71
2021/03/01 04:35:25;;;;;;;1.40;0.93;;;;;;;;;;5073390;28;20413;-70
2021/03/01 04:37:50;;;;;;;2.90;1.53;;;;;;;;;;5073590;28;20467;-71
2021/03/01 04:40:17;;;;;;;1.87;0.70;;;;;;;;;;5040295;28;20498;-70
2021/03/01 04:42:44;;;;;;;3.57;1.80;;;;;;;;;;5072009;28;20440;-71
2021/03/01 04:45:11;;;;;;;0.93;0.87;;;;;;;;;;5071876;28;20440;-70
2021/03/01 04:47:39;;;;;;;3.07;2.40;;;;;;;;;;5072432;28;20409;-71
2021/03/01 04:50:06;;;;;;;1.53;1.20;;;;;;;;;;5071210;28;20904;-70
2021/03/01 04:52:32;;;;;;;1.53;0.80;;;;;;;;;;5072122;28;20422;-70
2021/03/01 04:55:00;;;;;;;1.67;1.57;;;;;;;;;;5071576;28;20774;-70
2021/03/01 04:57:26;;;;;;;0.70;0.50;;;;;;;;;;5074879;28;20443;-69
2021/03/01 04:59:52;;;;;;;0.90;0.70;;;;;;;;;;5073043;28;20818;-70
2021/03/01 05:02:19;;;;;;;0.70;0.50;;;;;;;;;;5057235;28;20441;-70
2021/03/01 05:04:45;;;;;;;1.37;1.27;;;;;;;;;;5051930;28;20413;-70
2021/03/01 05:07:10;;;;;;;0.90;0.80;;;;;;;;;;5066046;28;20495;-70
2021/03/01 05:09:38;;;;;;;0.80;0.50;;;;;;;;;;5082029;28;20428;-70
2021/03/01 05:12:04;;;;;;;6.73;1.23;;;;;;;;;;5071636;28;20426;-71
2021/03/01 05:14:30;;;;;;;0.80;0.70;;;;;;;;;;5070131;28;20420;-70
2021/03/01 05:16:56;;;;;;;2.70;1.13;;;;;;;;;;5064057;28;20414;-70
2021/03/01 05:19:22;;;;;;;0.90;0.50;;;;;;;;;;5066095;28;20453;-70
2021/03/01 05:21:48;;;;;;;4.10;0.60;;;;;;;;;;5082015;28;20938;-70
2021/03/01 05:24:14;;;;;;;2.00;1.67;;;;;;;;;;5073893;28;20411;-71
2021/03/01 05:26:40;;;;;;;0.80;0.50;;;;;;;;;;5063489;28;20436;-70
2021/03/01 05:29:06;;;;;;;1.13;0.87;;;;;;;;;;5062769;28;20399;-70
2021/03/01 05:31:32;;;;;;;1.00;0.77;;;;;;;;;;5060605;28;20510;-71
2021/03/01 05:33:58;;;;;;;1.17;1.00;;;;;;;;;;5071899;28;20412;-70
2021/03/01 05:36:24;;;;;;;1.20;0.70;;;;;;;;;;5055916;28;20755;-70
2021/03/01 05:38:50;;;;;;;28.03;3.07;;;;;;;;;;5062735;28;20449;-70
2021/03/01 05:41:18;;;;;;;1.27;1.17;;;;;;;;;;5064534;28;20936;-70
2021/03/01 05:43:46;;;;;;;0.70;0.50;;;;;;;;;;5077649;28;20785;-70
2021/03/01 05:46:15;;;;;;;1.70;0.87;;;;;;;;;;5080044;28;20429;-70
2021/03/01 05:48:41;;;;;;;5.17;1.80;;;;;;;;;;5081482;28;20561;-71
2021/03/01 05:51:07;;;;;;;1.00;0.90;;;;;;;;;;5076486;28;20406;-69
2021/03/01 05:53:41;;;;;;;1.53;0.87;;;;;;;;;;5089879;28;20434;-71
2021/03/01 05:56:07;;;;;;;2.10;0.73;;;;;;;;;;5066122;28;20463;-71
2021/03/01 05:58:34;;;;;;;3.30;1.43;;;;;;;;;;5076630;28;20465;-72
2021/03/01 06:01:01;;;;;;;0.80;0.63;;;;;;;;;;5077454;28;20390;-72
2021/03/01 06:03:31;;;;;;;1.13;1.03;;;;;;;;;;5079674;28;20413;-71
2021/03/01 06:05:57;;;;;;;1.47;0.60;;;;;;;;;;5081526;28;20424;-72
2021/03/01 06:08:23;;;;;;;0.80;0.80;;;;;;;;;;5066689;28;20412;-73
2021/03/01 06:10:49;;;;;;;0.70;0.40;;;;;;;;;;5084390;28;20376;-71
2021/03/01 06:13:16;;;;;;;0.80;0.70;;;;;;;;;;5081059;28;20391;-70
2021/03/01 06:15:43;;;;;;;0.93;0.80;;;;;;;;;;5064807;28;20476;-71
2021/03/01 06:18:10;;;;;;;2.40;0.60;;;;;;;;;;5053940;28;20433;-71
2021/03/01 06:20:36;;;;;;;2.50;0.60;;;;;;;;;;5069229;28;20399;-73
2021/03/01 06:23:03;;;;;;;2.00;0.90;;;;;;;;;;5080074;22;20470;-68
2021/03/01 06:25:29;;;;;;;0.80;0.60;;;;;;;;;;5075081;28;20945;-68
2021/03/01 06:27:56;;;;;;;1.30;0.90;;;;;;;;;;5079253;28;20405;-68
2021/03/01 06:30:25;;;;;;;6.20;1.60;;;;;;;;;;5072563;28;20765;-68
2021/03/01 06:33:10;;;;;;;0.70;0.50;;;;;;;;;;5074992;28;20491;-69
2021/03/01 06:35:37;;;;;;;5.53;1.50;;;;;;;;;;5067955;28;20479;-72
2021/03/01 06:38:12;;;;;;;2.30;0.70;;;;;;;;;;5050560;28;20455;-72
2021/03/01 06:40:38;;;;;;;1.50;0.70;;;;;;;;;;5064707;28;20418;-69
2021/03/01 06:43:14;;;;;;;1.20;1.10;;;;;;;;;;5065874;28;20509;-70
2021/03/01 06:45:40;;;;;;;0.80;0.60;;;;;;;;;;5068733;28;20496;-70
2021/03/01 06:48:07;;;;;;;1.43;1.10;;;;;;;;;;5067978;28;20475;-71
2021/03/01 06:50:37;;;;;;;1.67;1.43;;;;;;;;;;5051868;28;20446;-70
2021/03/01 06:53:15;;;;;;;1.00;0.77;;;;;;;;;;5069790;28;20438;-70
2021/03/01 06:55:56;;;;;;;0.70;0.50;;;;;;;;;;5072848;28;20958;-71
2021/03/01 06:58:24;;;;;;;0.80;0.70;;;;;;;;;;5069812;28;20492;-71
2021/03/01 07:01:01;;;;;;;1.53;1.37;;;;;;;;;;5070345;28;20818;-73
2021/03/01 07:03:27;;;;;;;0.80;0.80;;;;;;;;;;5043367;28;20442;-69
2021/03/01 07:05:55;;;;;;;1.97;1.87;;;;;;;;;;5064400;28;20505;-69
2021/03/01 07:08:34;;;;;;;0.80;0.70;;;;;;;;;;5060863;28;20409;-71
2021/03/01 07:11:01;;;;;;;1.30;1.13;;;;;;;;;;5062852;28;20419;-69
2021/03/01 07:13:27;;;;;;;0.90;0.50;;;;;;;;;;5064743;28;20882;-72
2021/03/01 07:15:53;;;;;;;5.07;1.50;;;;;;;;;;5064470;28;20909;-71
2021/03/01 07:18:20;;;;;;;1.47;1.37;;;;;;;;;;5061233;28;20484;-70
2021/03/01 07:20:47;;;;;;;2.73;1.23;;;;;;;;;;5061736;28;20808;-69
2021/03/01 07:23:14;;;;;;;1.20;1.10;;;;;;;;;;5063100;28;20642;-71
2021/03/01 07:25:40;;;;;;;0.90;0.80;;;;;;;;;;5067317;28;20433;-69
2021/03/01 07:28:07;;;;;;;0.70;0.50;;;;;;;;;;5072167;28;20813;-69
2021/03/01 07:30:34;;;;;;;1.67;0.70;;;;;;;;;;5075418;28;20765;-71
2021/03/01 07:33:00;;;;;;;1.00;0.80;;;;;;;;;;5063926;28;20441;-70
2021/03/01 07:35:26;;;;;;;1.37;1.27;;;;;;;;;;5069514;28;20429;-70
2021/03/01 07:37:52;;;;;;;8.03;1.43;;;;;;;;;;5051552;28;20451;-69
2021/03/01 07:40:18;;;;;;;0.90;0.50;;;;;;;;;;5061073;28;20873;-69
2021/03/01 07:42:44;;;;;;;1.37;0.90;;;;;;;;;;5065111;28;20437;-69
2021/03/01 07:45:12;;;;;;;0.93;0.90;;;;;;;;;;5042827;28;20411;-70
2021/03/01 07:47:38;;;;;;;1.43;0.90;;;;;;;;;;5049398;28;20947;-71
2021/03/01 07:50:04;;;;;;;4.13;1.83;;;;;;;;;;5067560;28;20421;-70
2021/03/01 07:52:31;;;;;;;1.67;0.80;;;;;;;;;;5065586;28;20460;-70
2021/03/01 07:54:58;;;;;;;3.03;0.77;;;;;;;;;;5060978;28;20422;-69
2021/03/01 07:57:25;;;;;;;1.37;0.60;;;;;;;;;;5059517;28;20470;-69
2021/03/01 07:59:52;;;;;;;0.77;0.53;;;;;;;;;;5061082;28;21079;-69
2021/03/01 08:02:29;;;;;;;1.80;1.17;;;;;;;;;;5060139;28;20886;-70
2021/03/01 08:04:57;;;;;;;2.13;1.47;;;;;;;;;;5054899;28;20449;-70
2021/03/01 08:07:39;;;;;;;0.80;0.57;;;;;;;;;;5041754;28;20431;-71
2021/03/01 08:10:07;;;;;;;4.30;2.83;;;;;;;;;;5065685;28;20407;-70
2021/03/01 08:12:34;;;;;;;1.47;1.37;;;;;;;;;;5060510;28;20442;-69
2021/03/01 08:15:03;;;;;;;1.43;1.20;;;;;;;;;;5063531;28;20408;-70
2021/03/01 08:17:29;;;;;;;1.17;0.90;;;;;;;;;;5060994;28;20414;-69
2021/03/01 08:20:16;;;;;;;0.90;0.70;;;;;;;;;;5059734;28;20477;-68
2021/03/01 08:23:00;;;;;;;2.40;2.00;;;;;;;;;;5059138;28;20443;-68
2021/03/01 08:25:46;;;;;;;0.80;0.73;;;;;;;;;;5067173;28;20414;-69
2021/03/01 08:28:18;;;;;;;0.80;0.80;;;;;;;;;;5059094;28;20896;-68
2021/03/01 08:30:43;;;;;;;0.90;0.70;;;;;;;;;;5065927;28;20417;-68
2021/03/01 08:33:09;;;;;;;1.00;0.90;;;;;;;;;;5056960;28;20808;-68
2021/03/01 08:35:35;;;;;;;0.93;0.80;;;;;;;;;;5057893;28;20561;-69
2021/03/01 08:38:01;;;;;;;0.70;0.40;;;;;;;;;;5066684;28;20974;-68
2021/03/01 08:40:27;;;;;;;0.97;0.67;;;;;;;;;;5060897;28;20672;-68
2021/03/01 08:42:55;;;;;;;2.40;1.33;;;;;;;;;;5062150;28;20503;-69
2021/03/01 08:45:22;;;;;;;1.20;0.73;;;;;;;;;;5060886;28;20554;-68
2021/03/01 08:47:52;;;;;;;1.17;1.07;;;;;;;;;;5061506;28;20419;-69
2021/03/01 08:50:22;;;;;;;0.77;0.50;;;;;;;;;;5050270;28;20435;-70
2021/03/01 08:52:49;;;;;;;0.90;0.77;;;;;;;;;;5055456;28;20453;-68
2021/03/01 08:55:17;;;;;;;1.53;1.03;;;;;;;;;;5058910;28;20970;-70
2021/03/01 08:58:02;;;;;;;1.70;1.60;;;;;;;;;;5060247;28;20427;-71
2021/03/01 09:00:29;;;;;;;1.00;0.70;;;;;;;;;;5063093;28;20385;-70
2021/03/01 09:03:10;;;;;;;1.40;1.30;;;;;;;;;;5058131;28;20623;-70
2021/03/01 09:05:36;;;;;;;0.87;0.80;;;;;;;;;;5053945;28;20939;-68
2021/03/01 09:08:02;;;;;;;10.63;1.27;;;;;;;;;;5055008;28;20790;-71
2021/03/01 09:10:35;;;;;;;1.97;1.17;;;;;;;;;;5061988;28;20419;-70
2021/03/01 09:13:01;;;;;;;3.20;0.87;;;;;;;;;;5050442;28;20773;-70
2021/03/01 09:15:27;;;;;;;1.63;0.93;;;;;;;;;;5050036;28;20941;-70
2021/03/01 09:17:53;;;;;;;1.17;1.07;;;;;;;;;;5063622;28;20447;-71
2021/03/01 09:20:19;;;;;;;2.20;1.23;;;;;;;;;;5052192;28;20862;-70
2021/03/01 09:22:45;;;;;;;7.40;2.03;;;;;;;;;;5064837;28;21006;-68
2021/03/01 09:25:31;;;;;;;1.00;0.80;;;;;;;;;;5070055;28;20417;-71
2021/03/01 09:27:57;;;;;;;1.33;1.23;;;;;;;;;;5065277;28;20423;-70
2021/03/01 09:30:23;;;;;;;4.83;2.97;;;;;;;;;;5057806;28;20922;-70
2021/03/01 09:33:05;;;;;;;1.90;1.47;;;;;;;;;;5064666;28;20441;-68
2021/03/01 09:35:33;;;;;;;5.43;2.87;;;;;;;;;;5051077;28;20417;-70
2021/03/01 09:37:59;;;;;;;1.27;1.17;;;;;;;;;;5064331;28;20483;-70
2021/03/01 09:40:26;;;;;;;2.30;1.00;;;;;;;;;;5049448;28;20498;-69
2021/03/01 09:42:53;;;;;;;0.93;0.83;;;;;;;;;;5050144;28;20503;-75
2021/03/01 09:45:20;;;;;;;5.93;2.33;;;;;;;;;;5052571;28;20435;-70
2021/03/01 09:47:47;;;;;;;4.00;1.47;;;;;;;;;;5069234;28;20435;-70
2021/03/01 09:50:13;;;;;;;1.90;1.70;;;;;;;;;;5070236;28;20503;-71
2021/03/01 09:52:40;;;;;;;1.80;1.30;;;;;;;;;;5069993;28;20419;-70
2021/03/01 09:55:07;;;;;;;4.90;1.77;;;;;;;;;;5051647;28;21220;-70
2021/03/01 09:57:33;;;;;;;2.30;1.70;;;;;;;;;;5062110;28;20410;-70
2021/03/01 09:59:59;;;;;;;4.17;2.17;;;;;;;;;;5059700;28;20837;-64
2021/03/01 10:02:25;;;;;;;2.17;1.50;;;;;;;;;;5053429;28;20457;-66
2021/03/01 10:04:52;;;;;;;2.30;1.47;;;;;;;;;;5061063;28;20541;-66
2021/03/01 10:07:25;;;;;;;1.00;0.90;;;;;;;;;;5062712;28;20442;-66
2021/03/01 10:09:52;;;;;;;2.13;1.80;;;;;;;;;;5057909;28;20424;-65
2021/03/01 10:12:18;;;;;;;1.20;0.90;;;;;;;;;;5058707;28;20503;-66
2021/03/01 10:14:44;;;;;;;1.80;1.70;;;;;;;;;;5063552;28;20504;-71
2021/03/01 10:17:22;;;;;;;6.30;3.47;;;;;;;;;;5069696;28;20522;-71
2021/03/01 10:19:48;;;;;;;2.57;2.07;;;;;;;;;;5067214;28;20452;-71
2021/03/01 10:22:15;;;;;;;2.43;1.87;;;;;;;;;;5059673;28;20436;-71
2021/03/01 10:24:49;;;;;;;3.30;3.00;;;;;;;;;;5058801;28;20508;-71
2021/03/01 10:27:16;;;;;;;2.97;2.63;;;;;;;;;;5064865;28;20491;-70
2021/03/01 10:29:43;;;;;;;2.87;2.40;;;;;;;;;;5066913;28;20773;-71
2021/03/01 10:32:18;;;;;;;1.90;1.80;;;;;;;;;;5066439;28;20401;-70
2021/03/01 10:34:44;;;;;;;2.00;1.40;;;;;;;;;;5060819;28;20421;-70
2021/03/01 10:37:11;;;;;;;3.10;2.47;;;;;;;;;;5063899;28;20926;-70
2021/03/01 10:39:37;;;;;;;1.67;1.40;;;;;;;;;;5064819;28;20477;-70
2021/03/01 10:42:11;;;;;;;2.90;2.63;;;;;;;;;;5062660;28;20446;-71
2021/03/01 10:44:37;;;;;;;2.50;2.10;;;;;;;;;;5064516;28;20408;-70
2021/03/01 10:47:13;;;;;;;2.60;1.80;;;;;;;;;;5061190;28;20394;-71
2021/03/01 10:49:39;;;;;;;4.80;2.83;;;;;;;;;;5052685;28;20410;-70
2021/03/01 10:52:07;;;;;;;3.60;2.90;;;;;;;;;;5055702;28;20464;-71
2021/03/01 10:54:33;;;;;;;6.30;2.83;;;;;;;;;;5058641;28;20511;-71
2021/03/01 10:56:59;;;;;;;3.43;1.30;;;;;;;;;;5059424;28;20529;-71
2021/03/01 10:59:25;;;;;;;6.83;3.57;;;;;;;;;;5064343;28;20429;-71
2021/03/01 11:01:51;;;;;;;7.57;3.97;;;;;;;;;;5061079;28;20785;-71
2021/03/01 11:04:18;;;;;;;3.07;2.30;;;;;;;;;;5062000;28;20447;-71
2021/03/01 11:06:45;;;;;;;1.57;1.47;;;;;;;;;;5061480;28;20395;-71
2021/03/01 11:09:11;;;;;;;3.10;2.73;;;;;;;;;;5062551;28;20369;-71
2021/03/01 11:11:38;;;;;;;2.27;2.17;;;;;;;;;;5064075;28;20483;-71
2021/03/01 11:14:05;;;;;;;8.77;1.57;;;;;;;;;;5043714;28;20400;-71
2021/03/01 11:16:31;;;;;;;3.53;3.23;;;;;;;;;;5069155;28;20461;-70
2021/03/01 11:18:57;;;;;;;1.80;1.70;;;;;;;;;;5052829;28;20436;-69
2021/03/01 11:21:23;;;;;;;1.97;1.50;;;;;;;;;;5065747;28;20426;-71
2021/03/01 11:23:49;;;;;;;6.77;2.73;;;;;;;;;;5066701;28;20562;-70
2021/03/01 11:26:15;;;;;;;4.57;2.20;;;;;;;;;;5061355;28;20456;-70
2021/03/01 11:28:44;;;;;;;9.70;2.70;;;;;;;;;;5066492;28;20407;-70
2021/03/01 11:31:10;;;;;;;6.87;4.10;;;;;;;;;;5080848;28;20372;-71
2021/03/01 11:33:37;;;;;;;9.40;3.60;;;;;;;;;;5070929;28;20436;-70
2021/03/01 11:36:03;;;;;;;7.67;5.73;;;;;;;;;;5071578;28;20389;-71
2021/03/01 11:38:29;;;;;;;4.70;3.50;;;;;;;;;;5063106;28;20505;-68
2021/03/01 11:40:55;;;;;;;;;;;;;;;;;;5063286;28;20414;-69
2021/03/01 11:43:21;;;;;;;;;;;;;;;;;;5084286;28;19958;-69
2021/03/01 11:45:47;;;;;;;12.80;6.53;;;;;;;;;;5071540;28;20871;-69
2021/03/01 11:48:14;;;;;;;9.73;4.50;;;;;;;;;;5070464;28;20493;-72
2021/03/01 11:50:41;;;;;;;14.60;5.53;;;;;;;;;;5071163;28;20515;-71
2021/03/01 11:53:07;;;;;;;355.90;331.67;;;;;;;;;;5049757;28;20437;-69
2021/03/01 11:55:33;;;;;;;273.10;253.90;;;;;;;;;;5052548;28;20415;-69
2021/03/01 11:57:59;;;;;;;34.20;31.65;;;;;;;;;;5061682;28;20439;-68
2021/03/01 12:00:25;;;;;;;58.43;52.80;;;;;;;;;;5071889;28;20645;-70
2021/03/01 12:02:51;;;;;;;243.25;211.65;;;;;;;;;;5084057;28;20228;-71
2021/03/01 12:05:17;;;;;;;5.33;2.80;;;;;;;;;;5067166;28;20188;-70
2021/03/01 12:07:44;;;;;;;145.03;132.70;;;;;;;;;;5061939;28;20460;-71
2021/03/01 12:10:10;;;;;;;36.37;22.47;;;;;;;;;;5061755;28;20407;-70
2021/03/01 12:12:36;;;;;;;7.97;4.20;;;;;;;;;;5059243;28;20929;-71
2021/03/01 12:15:02;;;;;;;;;;;;;;;;;;5062617;28;20176;-68
2021/03/01 12:17:28;;;;;;;8.30;3.60;;;;;;;;;;5059138;28;20398;-70
2021/03/01 12:19:54;;;;;;;8.40;4.00;;;;;;;;;;5057019;28;20239;-70
2021/03/01 12:25:07;;;;;;;5.50;2.93;;;;;;;;;;5043699;28;20463;-68
2021/03/01 12:27:33;;;;;;;3.13;2.10;;;;;;;;;;5037689;28;20399;-68
2021/03/01 12:29:59;;;;;;;4.20;3.27;;;;;;;;;;5048112;28;20403;-70
2021/03/01 12:32:25;;;;;;;5.10;2.83;;;;;;;;;;5041726;28;20403;-69
2021/03/01 12:34:51;;;;;;;3.77;2.20;;;;;;;;;;5050545;28;20427;-70
2021/03/01 12:37:17;;;;;;;9.67;4.13;;;;;;;;;;5047708;28;20450;-69
2021/03/01 12:39:43;;;;;;;6.17;3.17;;;;;;;;;;5050653;28;21189;-70
2021/03/01 12:42:09;;;;;;;6.50;3.47;;;;;;;;;;5050214;28;20406;-70
2021/03/01 12:44:36;;;;;;;5.00;2.87;;;;;;;;;;5050994;28;20823;-70
2021/03/01 12:47:02;;;;;;;7.90;3.90;;;;;;;;;;5050317;28;20461;-69
2021/03/01 12:49:28;;;;;;;5.83;3.13;;;;;;;;;;5047685;28;20462;-70
2021/03/01 12:51:54;;;;;;;63.83;37.20;;;;;;;;;;5039013;28;20447;-70
2021/03/01 12:54:20;;;;;;;168.20;152.87;;;;;;;;;;5029989;28;20428;-69
2021/03/01 12:56:46;;;;;;;77.10;71.47;;;;;;;;;;5031235;28;20916;-69
2021/03/01 12:59:12;;;;;;;85.97;76.40;;;;;;;;;;5033953;28;20454;-69
2021/03/01 13:01:38;;;;;;;4.23;2.60;;;;;;;;;;5041120;28;20441;-69
2021/03/01 13:04:04;;;;;;;741.70;690.00;;;;;;;;;;5045435;28;20473;-69
2021/03/01 13:06:30;;;;;;;671.83;631.47;;;;;;;;;;5050570;28;20451;-69
2021/03/01 13:08:56;;;;;;;13.90;9.50;;;;;;;;;;5046288;28;20856;-69
2021/03/01 13:11:22;;;;;;;2.90;2.53;;;;;;;;;;5042983;28;20774;-69
2021/03/01 13:13:48;;;;;;;2.83;1.87;;;;;;;;;;5034832;28;20455;-69
2021/03/01 13:16:14;;;;;;;8.00;2.53;;;;;;;;;;5030392;28;20851;-69
2021/03/01 13:18:40;;;;;;;5.63;3.23;;;;;;;;;;5030696;28;20538;-70
2021/03/01 13:21:07;;;;;;;5.00;2.77;;;;;;;;;;5030816;28;20513;-70
2021/03/01 13:23:33;;;;;;;2.93;2.10;;;;;;;;;;5029571;28;20444;-70
2021/03/01 13:25:59;;;;;;;8.13;2.50;;;;;;;;;;5031062;28;20446;-70
2021/03/01 13:28:25;;;;;;;954.40;874.60;;;;;;;;;;5043101;28;20517;-70
2021/03/01 13:30:51;;;;;;;634.53;592.47;;;;;;;;;;5051282;28;20778;-70
2021/03/01 13:33:18;;;;;;;225.03;208.03;;;;;;;;;;5047006;28;20458;-70
2021/03/01 13:35:44;;;;;;;;;;;;;;;;;;5045763;28;20419;-69
2021/03/01 13:38:09;;;;;;;;;;;;;;;;;;5048330;28;20003;-68
2021/03/01 13:40:36;;;;;;;8.10;4.30;;;;;;;;;;5037497;28;20393;-70
2021/03/01 13:43:02;;;;;;;4.30;3.27;;;;;;;;;;5048521;28;20764;-72
2021/03/01 13:45:28;;;;;;;4.93;2.87;;;;;;;;;;5049567;28;21065;-72
2021/03/01 13:47:54;;;;;;;8.07;5.20;;;;;;;;;;5048088;28;20419;-70
2021/03/01 13:50:19;;;;;;;3.43;2.20;;;;;;;;;;5052496;28;20422;-73
2021/03/01 13:52:46;;;;;;;2.20;1.73;;;;;;;;;;5052478;28;20407;-70
2021/03/01 13:55:12;;;;;;;8.03;2.63;;;;;;;;;;5053395;28;20411;-70
2021/03/01 13:57:38;;;;;;;3.83;2.57;;;;;;;;;;5051857;28;20435;-69
2021/03/01 14:00:05;;;;;;;3.80;2.63;;;;;;;;;;5032574;28;20446;-69
2021/03/01 14:02:31;;;;;;;6.63;3.50;;;;;;;;;;5051094;28;20399;-69
2021/03/01 14:04:57;;;;;;;6.03;3.23;;;;;;;;;;5053168;28;20431;-69
2021/03/01 14:07:23;;;;;;;2.93;2.60;;;;;;;;;;5053924;28;20453;-69
2021/03/01 14:09:50;;;;;;;3.70;3.03;;;;;;;;;;5051602;28;20518;-68
2021/03/01 14:12:16;;;;;;;5.43;2.60;;;;;;;;;;5044010;28;20402;-70
2021/03/01 14:14:42;;;;;;;4.20;2.27;;;;;;;;;;5052665;28;20430;-69
2021/03/01 14:17:08;;;;;;;4.00;2.50;;;;;;;;;;5054249;28;20402;-70
2021/03/01 14:19:34;;;;;;;2.23;2.00;;;;;;;;;;5053320;28;20549;-69
2021/03/01 14:22:00;;;;;;;4.43;2.87;;;;;;;;;;5053819;28;20395;-70
2021/03/01 14:24:26;;;;;;;3.27;2.33;;;;;;;;;;5052756;28;20527;-69
2021/03/01 14:26:52;;;;;;;5.63;2.60;;;;;;;;;;5053560;28;20456;-70
2021/03/01 14:29:19;;;;;;;6.43;2.30;;;;;;;;;;5066134;28;20413;-70
2021/03/01 14:31:45;;;;;;;4.67;3.17;;;;;;;;;;5055623;28;20413;-69
2021/03/01 14:34:11;;;;;;;5.27;4.40;;;;;;;;;;5052681;28;20997;-70
2021/03/01 14:36:37;;;;;;;9.90;5.30;;;;;;;;;;5051316;28;20437;-70
2021/03/01 14:39:04;;;;;;;8.30;4.00;;;;;;;;;;5052554;28;20520;-69
2021/03/01 14:41:30;;;;;;;5.73;3.37;;;;;;;;;;5051648;28;20419;-70
2021/03/01 14:43:56;;;;;;;16.70;4.60;;;;;;;;;;5048796;28;20446;-69
2021/03/01 14:46:22;;;;;;;7.30;3.53;;;;;;;;;;5053701;28;20435;-70